<?xml version="1.0" encoding="UTF-8" standalone="no" ?>
<gpx xmlns="http://www.topografix.com/GPX/1/1" xmlns:xsi="http://www.w3.org/2001/XMLSchema-instance" xsi:schemaLocation="http://www.topografix.com/GPX/1/1 http://www.topografix.com/GPX/1/1/gpx.xsd" version="1.1" creator="VisuGPX - https://www.visugpx.com">
  <metadata>
    <name>Abbaye de Sénanque, Gordes, village des Bories et retour par Sénancole</name>
    <desc><![CDATA[10km]]></desc>
  </metadata>
  <wpt lat="43.93077" lon="5.18901">
    <ele>375.1</ele>
    <name><![CDATA[Parking de l'Abbaye de Sénanque]]></name>
    <type><![CDATA[0]]></type>
  </wpt>
  <wpt lat="43.92348" lon="5.18683">
    <ele>462</ele>
    <name><![CDATA[Bifurcation avec le °°GR°°®]]></name>
    <type><![CDATA[0]]></type>
  </wpt>
  <wpt lat="43.92119" lon="5.18816">
    <ele>425.6</ele>
    <name><![CDATA[Croisement de pistes]]></name>
    <type><![CDATA[0]]></type>
  </wpt>
  <wpt lat="43.91671" lon="5.19427">
    <ele>368.6</ele>
    <name><![CDATA[Carrefour route de Sénanque]]></name>
    <type><![CDATA[0]]></type>
  </wpt>
  <wpt lat="43.91417" lon="5.19544">
    <ele>364.6</ele>
    <name><![CDATA[Hameau de la Rouguière.]]></name>
    <type><![CDATA[0]]></type>
  </wpt>
  <wpt lat="43.90694" lon="5.19715">
    <ele>319.7</ele>
    <name><![CDATA[Bel Air, petite route à droite]]></name>
    <type><![CDATA[0]]></type>
  </wpt>
  <wpt lat="43.90674" lon="5.19702">
    <ele>317.8</ele>
    <name><![CDATA[Sentier vers les Devens]]></name>
    <type><![CDATA[0]]></type>
  </wpt>
  <wpt lat="43.9071" lon="5.18952">
    <ele>292</ele>
    <name><![CDATA[Route du Village des Bories]]></name>
    <type><![CDATA[0]]></type>
  </wpt>
  <wpt lat="43.9059" lon="5.18752">
    <ele>270</ele>
    <name><![CDATA[Tourner à droite]]></name>
    <type><![CDATA[0]]></type>
  </wpt>
  <wpt lat="43.90615" lon="5.18747">
    <ele>267.6</ele>
    <name><![CDATA[Route du Village des Bories]]></name>
    <type><![CDATA[0]]></type>
  </wpt>
  <wpt lat="43.90689" lon="5.1815">
    <ele>271.9</ele>
    <name><![CDATA[Parking village des Bories]]></name>
    <type><![CDATA[0]]></type>
  </wpt>
  <wpt lat="43.90668" lon="5.1814">
    <ele>272.7</ele>
    <name><![CDATA[Parking village des Bories - Village des Bories]]></name>
    <type><![CDATA[0]]></type>
  </wpt>
  <wpt lat="43.9022" lon="5.18246">
    <ele>218</ele>
    <name><![CDATA[Sentier vers la Sénancole]]></name>
    <type><![CDATA[0]]></type>
  </wpt>
  <wpt lat="43.90409" lon="5.17985">
    <ele>224.2</ele>
    <name><![CDATA[Lit de la rivière ou sentier]]></name>
    <type><![CDATA[0]]></type>
  </wpt>
  <wpt lat="43.91351" lon="5.17612">
    <ele>257.5</ele>
    <name><![CDATA[Embranchement vers l'Abbaye de Sénanque à droite]]></name>
    <type><![CDATA[0]]></type>
  </wpt>
  <wpt lat="43.93078" lon="5.18902">
    <ele>375.1</ele>
    <name><![CDATA[Abbaye de Sénanque]]></name>
    <type><![CDATA[0]]></type>
  </wpt>
  <trk>
    <name><![CDATA[Abbaye de Sénanque, Gordes, village des Bories et retour par Sénancole]]></name>
    <trkseg>
      <trkpt lat="43.93077" lon="5.18901">
        <ele>373.9999697</ele>
        <time>2019-01-24T11:33:28.000Z</time>
      </trkpt>
      <trkpt lat="43.93012" lon="5.18909">
        <ele>425.9999697</ele>
        <time>2019-01-24T11:35:02.000Z</time>
      </trkpt>
      <trkpt lat="43.92989" lon="5.189">
        <ele>426.9999697</ele>
        <time>2019-01-24T11:35:15.000Z</time>
      </trkpt>
      <trkpt lat="43.92964" lon="5.18906">
        <ele>431.9999697</ele>
        <time>2019-01-24T11:36:43.000Z</time>
      </trkpt>
      <trkpt lat="43.92941" lon="5.18905">
        <ele>436.9999697</ele>
        <time>2019-01-24T11:37:23.000Z</time>
      </trkpt>
      <trkpt lat="43.92917" lon="5.18904">
        <ele>442.9999697</ele>
        <time>2019-01-24T11:37:48.000Z</time>
      </trkpt>
      <trkpt lat="43.92894" lon="5.18899">
        <ele>432.9999697</ele>
        <time>2019-01-24T11:38:19.000Z</time>
      </trkpt>
      <trkpt lat="43.92872" lon="5.18893">
        <ele>440.9999697</ele>
        <time>2019-01-24T11:38:46.000Z</time>
      </trkpt>
      <trkpt lat="43.92851" lon="5.1888">
        <ele>444.9999697</ele>
        <time>2019-01-24T11:39:09.000Z</time>
      </trkpt>
      <trkpt lat="43.92831" lon="5.18864">
        <ele>450.9999697</ele>
        <time>2019-01-24T11:39:26.000Z</time>
      </trkpt>
      <trkpt lat="43.92811" lon="5.18848">
        <ele>455.9999697</ele>
        <time>2019-01-24T11:39:38.000Z</time>
      </trkpt>
      <trkpt lat="43.92792" lon="5.1883">
        <ele>457.9999697</ele>
        <time>2019-01-24T11:39:56.000Z</time>
      </trkpt>
      <trkpt lat="43.92773" lon="5.18814">
        <ele>458.9999697</ele>
        <time>2019-01-24T11:40:12.000Z</time>
      </trkpt>
      <trkpt lat="43.92753" lon="5.18796">
        <ele>463.9999697</ele>
        <time>2019-01-24T11:40:28.000Z</time>
      </trkpt>
      <trkpt lat="43.92732" lon="5.18785">
        <ele>463.9999697</ele>
        <time>2019-01-24T11:40:51.000Z</time>
      </trkpt>
      <trkpt lat="43.9271" lon="5.18775">
        <ele>462.9999697</ele>
        <time>2019-01-24T11:41:11.000Z</time>
      </trkpt>
      <trkpt lat="43.92692" lon="5.18754">
        <ele>466.9999697</ele>
        <time>2019-01-24T11:41:29.000Z</time>
      </trkpt>
      <trkpt lat="43.92673" lon="5.18735">
        <ele>467.9999697</ele>
        <time>2019-01-24T11:41:48.000Z</time>
      </trkpt>
      <trkpt lat="43.92654" lon="5.18718">
        <ele>471.9999697</ele>
        <time>2019-01-24T11:42:08.000Z</time>
      </trkpt>
      <trkpt lat="43.92632" lon="5.18703">
        <ele>475.9999697</ele>
        <time>2019-01-24T11:42:26.000Z</time>
      </trkpt>
      <trkpt lat="43.9261" lon="5.18692">
        <ele>478.9999697</ele>
        <time>2019-01-24T11:42:52.000Z</time>
      </trkpt>
      <trkpt lat="43.92588" lon="5.18688">
        <ele>477.9999697</ele>
        <time>2019-01-24T11:43:24.000Z</time>
      </trkpt>
      <trkpt lat="43.9257" lon="5.18668">
        <ele>485.9999697</ele>
        <time>2019-01-24T11:43:52.000Z</time>
      </trkpt>
      <trkpt lat="43.92552" lon="5.1865">
        <ele>484.9999697</ele>
        <time>2019-01-24T11:44:20.000Z</time>
      </trkpt>
      <trkpt lat="43.92531" lon="5.18636">
        <ele>488.9999697</ele>
        <time>2019-01-24T11:44:50.000Z</time>
      </trkpt>
      <trkpt lat="43.9251" lon="5.18623">
        <ele>494.9999697</ele>
        <time>2019-01-24T11:45:22.000Z</time>
      </trkpt>
      <trkpt lat="43.9249" lon="5.1861">
        <ele>501.9999697</ele>
        <time>2019-01-24T11:45:48.000Z</time>
      </trkpt>
      <trkpt lat="43.92466" lon="5.18602">
        <ele>503.9999697</ele>
        <time>2019-01-24T11:46:13.000Z</time>
      </trkpt>
      <trkpt lat="43.92444" lon="5.18604">
        <ele>510.9999697</ele>
        <time>2019-01-24T11:46:35.000Z</time>
      </trkpt>
      <trkpt lat="43.92423" lon="5.18617">
        <ele>516.9999697</ele>
        <time>2019-01-24T11:47:13.000Z</time>
      </trkpt>
      <trkpt lat="43.92402" lon="5.18629">
        <ele>517.9999697</ele>
        <time>2019-01-24T11:47:29.000Z</time>
      </trkpt>
      <trkpt lat="43.9238" lon="5.18639">
        <ele>514.9999697</ele>
        <time>2019-01-24T11:47:46.000Z</time>
      </trkpt>
      <trkpt lat="43.92362" lon="5.18659">
        <ele>518.9999697</ele>
        <time>2019-01-24T11:48:04.000Z</time>
      </trkpt>
      <trkpt lat="43.92348" lon="5.18683">
        <ele>516.9999697</ele>
        <time>2019-01-24T11:48:23.000Z</time>
      </trkpt>
      <trkpt lat="43.92325" lon="5.18693">
        <ele>508.9999697</ele>
        <time>2019-01-24T11:48:40.000Z</time>
      </trkpt>
      <trkpt lat="43.92306" lon="5.18711">
        <ele>503.9999697</ele>
        <time>2019-01-24T11:48:57.000Z</time>
      </trkpt>
      <trkpt lat="43.92284" lon="5.18712">
        <ele>500.9999697</ele>
        <time>2019-01-24T11:49:15.000Z</time>
      </trkpt>
      <trkpt lat="43.92263" lon="5.18726">
        <ele>497.9999697</ele>
        <time>2019-01-24T11:49:35.000Z</time>
      </trkpt>
      <trkpt lat="43.9224" lon="5.18733">
        <ele>494.9999697</ele>
        <time>2019-01-24T11:49:56.000Z</time>
      </trkpt>
      <trkpt lat="43.92221" lon="5.18751">
        <ele>487.9999697</ele>
        <time>2019-01-24T11:50:22.000Z</time>
      </trkpt>
      <trkpt lat="43.92202" lon="5.18768">
        <ele>479.9999697</ele>
        <time>2019-01-24T11:50:49.000Z</time>
      </trkpt>
      <trkpt lat="43.92182" lon="5.18784">
        <ele>477.9999697</ele>
        <time>2019-01-24T11:51:11.000Z</time>
      </trkpt>
      <trkpt lat="43.92164" lon="5.18805">
        <ele>484.9999697</ele>
        <time>2019-01-24T11:51:41.000Z</time>
      </trkpt>
      <trkpt lat="43.92142" lon="5.18816">
        <ele>475.9999697</ele>
        <time>2019-01-24T11:52:00.000Z</time>
      </trkpt>
      <trkpt lat="43.92118" lon="5.18816">
        <ele>472.9999697</ele>
        <time>2019-01-24T11:52:23.000Z</time>
      </trkpt>
      <trkpt lat="43.92105" lon="5.18841">
        <ele>472.9999697</ele>
        <time>2019-01-24T11:53:21.000Z</time>
      </trkpt>
      <trkpt lat="43.92085" lon="5.18859">
        <ele>473.9999697</ele>
        <time>2019-01-24T11:53:39.000Z</time>
      </trkpt>
      <trkpt lat="43.92067" lon="5.18879">
        <ele>468.9999697</ele>
        <time>2019-01-24T11:54:02.000Z</time>
      </trkpt>
      <trkpt lat="43.92047" lon="5.18896">
        <ele>462.9999697</ele>
        <time>2019-01-24T11:54:22.000Z</time>
      </trkpt>
      <trkpt lat="43.92019" lon="5.18946">
        <ele>459.9999697</ele>
        <time>2019-01-24T11:54:55.000Z</time>
      </trkpt>
      <trkpt lat="43.92011" lon="5.18975">
        <ele>465.9999697</ele>
        <time>2019-01-24T11:55:19.000Z</time>
      </trkpt>
      <trkpt lat="43.92" lon="5.19003">
        <ele>457.9999697</ele>
        <time>2019-01-24T11:55:42.000Z</time>
      </trkpt>
      <trkpt lat="43.91985" lon="5.19029">
        <ele>457.9999697</ele>
        <time>2019-01-24T11:55:57.000Z</time>
      </trkpt>
      <trkpt lat="43.91964" lon="5.1904">
        <ele>450.9999697</ele>
        <time>2019-01-24T11:56:18.000Z</time>
      </trkpt>
      <trkpt lat="43.91945" lon="5.19059">
        <ele>449.9999697</ele>
        <time>2019-01-24T11:56:36.000Z</time>
      </trkpt>
      <trkpt lat="43.91929" lon="5.1908">
        <ele>448.9999697</ele>
        <time>2019-01-24T11:56:53.000Z</time>
      </trkpt>
      <trkpt lat="43.91912" lon="5.19101">
        <ele>450.9999697</ele>
        <time>2019-01-24T11:57:11.000Z</time>
      </trkpt>
      <trkpt lat="43.91894" lon="5.19123">
        <ele>449.9999697</ele>
        <time>2019-01-24T11:57:28.000Z</time>
      </trkpt>
      <trkpt lat="43.91875" lon="5.1914">
        <ele>450.9999697</ele>
        <time>2019-01-24T11:57:48.000Z</time>
      </trkpt>
      <trkpt lat="43.91856" lon="5.19162">
        <ele>444.9999697</ele>
        <time>2019-01-24T11:58:10.000Z</time>
      </trkpt>
      <trkpt lat="43.9184" lon="5.19184">
        <ele>440.9999697</ele>
        <time>2019-01-24T11:58:28.000Z</time>
      </trkpt>
      <trkpt lat="43.91824" lon="5.19207">
        <ele>439.9999697</ele>
        <time>2019-01-24T11:58:47.000Z</time>
      </trkpt>
      <trkpt lat="43.91806" lon="5.19229">
        <ele>439.9999697</ele>
        <time>2019-01-24T11:59:07.000Z</time>
      </trkpt>
      <trkpt lat="43.91786" lon="5.19246">
        <ele>441.9999697</ele>
        <time>2019-01-24T11:59:26.000Z</time>
      </trkpt>
      <trkpt lat="43.91767" lon="5.19265">
        <ele>439.9999697</ele>
        <time>2019-01-24T11:59:43.000Z</time>
      </trkpt>
      <trkpt lat="43.91748" lon="5.19284">
        <ele>436.9999697</ele>
        <time>2019-01-24T12:00:03.000Z</time>
      </trkpt>
      <trkpt lat="43.91747" lon="5.19315">
        <ele>437.9999697</ele>
        <time>2019-01-24T12:00:20.000Z</time>
      </trkpt>
      <trkpt lat="43.91749" lon="5.19347">
        <ele>430.9999697</ele>
        <time>2019-01-24T12:00:39.000Z</time>
      </trkpt>
      <trkpt lat="43.9175" lon="5.19378">
        <ele>426.9999697</ele>
        <time>2019-01-24T12:01:00.000Z</time>
      </trkpt>
      <trkpt lat="43.9173" lon="5.19392">
        <ele>428.9999697</ele>
        <time>2019-01-24T12:01:15.000Z</time>
      </trkpt>
      <trkpt lat="43.91708" lon="5.19394">
        <ele>423.9999697</ele>
        <time>2019-01-24T12:01:34.000Z</time>
      </trkpt>
      <trkpt lat="43.91685" lon="5.19402">
        <ele>420.9999697</ele>
        <time>2019-01-24T12:01:52.000Z</time>
      </trkpt>
      <trkpt lat="43.91671" lon="5.19427">
        <ele>420.9999697</ele>
        <time>2019-01-24T12:02:38.000Z</time>
      </trkpt>
      <trkpt lat="43.91659" lon="5.19455">
        <ele>420.9999697</ele>
        <time>2019-01-24T12:02:58.000Z</time>
      </trkpt>
      <trkpt lat="43.91637" lon="5.19465">
        <ele>417.9999697</ele>
        <time>2019-01-24T12:03:15.000Z</time>
      </trkpt>
      <trkpt lat="43.91613" lon="5.19466">
        <ele>407.9999697</ele>
        <time>2019-01-24T12:03:35.000Z</time>
      </trkpt>
      <trkpt lat="43.9159" lon="5.19473">
        <ele>415.9999697</ele>
        <time>2019-01-24T12:03:48.000Z</time>
      </trkpt>
      <trkpt lat="43.91567" lon="5.19472">
        <ele>416.9999697</ele>
        <time>2019-01-24T12:04:06.000Z</time>
      </trkpt>
      <trkpt lat="43.91544" lon="5.19473">
        <ele>416.9999697</ele>
        <time>2019-01-24T12:04:23.000Z</time>
      </trkpt>
      <trkpt lat="43.91521" lon="5.19477">
        <ele>416.9999697</ele>
        <time>2019-01-24T12:04:39.000Z</time>
      </trkpt>
      <trkpt lat="43.91499" lon="5.19485">
        <ele>418.9999697</ele>
        <time>2019-01-24T12:04:55.000Z</time>
      </trkpt>
      <trkpt lat="43.91476" lon="5.19494">
        <ele>418.9999697</ele>
        <time>2019-01-24T12:05:29.000Z</time>
      </trkpt>
      <trkpt lat="43.91455" lon="5.1951">
        <ele>418.9999697</ele>
        <time>2019-01-24T12:05:48.000Z</time>
      </trkpt>
      <trkpt lat="43.91434" lon="5.19524">
        <ele>417.9999697</ele>
        <time>2019-01-24T12:06:06.000Z</time>
      </trkpt>
      <trkpt lat="43.91417" lon="5.19544">
        <ele>416.9999697</ele>
        <time>2019-01-24T12:06:26.000Z</time>
      </trkpt>
      <trkpt lat="43.914" lon="5.19565">
        <ele>415.9999697</ele>
        <time>2019-01-24T12:06:44.000Z</time>
      </trkpt>
      <trkpt lat="43.91382" lon="5.19584">
        <ele>414.9999697</ele>
        <time>2019-01-24T12:07:01.000Z</time>
      </trkpt>
      <trkpt lat="43.91362" lon="5.19599">
        <ele>413.9999697</ele>
        <time>2019-01-24T12:07:17.000Z</time>
      </trkpt>
      <trkpt lat="43.9134" lon="5.19608">
        <ele>411.9999697</ele>
        <time>2019-01-24T12:07:33.000Z</time>
      </trkpt>
      <trkpt lat="43.91316" lon="5.19614">
        <ele>407.9999697</ele>
        <time>2019-01-24T12:07:51.000Z</time>
      </trkpt>
      <trkpt lat="43.91292" lon="5.19619">
        <ele>406.9999697</ele>
        <time>2019-01-24T12:08:09.000Z</time>
      </trkpt>
      <trkpt lat="43.91269" lon="5.19628">
        <ele>404.9999697</ele>
        <time>2019-01-24T12:08:26.000Z</time>
      </trkpt>
      <trkpt lat="43.91246" lon="5.1963">
        <ele>402.9999697</ele>
        <time>2019-01-24T12:08:43.000Z</time>
      </trkpt>
      <trkpt lat="43.91223" lon="5.19624">
        <ele>402.9999697</ele>
        <time>2019-01-24T12:09:01.000Z</time>
      </trkpt>
      <trkpt lat="43.912" lon="5.19624">
        <ele>397.9999697</ele>
        <time>2019-01-24T12:09:23.000Z</time>
      </trkpt>
      <trkpt lat="43.91179" lon="5.19639">
        <ele>396.9999697</ele>
        <time>2019-01-24T12:09:41.000Z</time>
      </trkpt>
      <trkpt lat="43.91161" lon="5.1966">
        <ele>394.9999697</ele>
        <time>2019-01-24T12:10:00.000Z</time>
      </trkpt>
      <trkpt lat="43.91138" lon="5.19665">
        <ele>393.9999697</ele>
        <time>2019-01-24T12:10:16.000Z</time>
      </trkpt>
      <trkpt lat="43.91115" lon="5.19675">
        <ele>390.9999697</ele>
        <time>2019-01-24T12:10:34.000Z</time>
      </trkpt>
      <trkpt lat="43.91092" lon="5.19684">
        <ele>388.9999697</ele>
        <time>2019-01-24T12:10:52.000Z</time>
      </trkpt>
      <trkpt lat="43.91071" lon="5.19696">
        <ele>384.9999697</ele>
        <time>2019-01-24T12:11:13.000Z</time>
      </trkpt>
      <trkpt lat="43.91049" lon="5.19707">
        <ele>386.9999697</ele>
        <time>2019-01-24T12:11:27.000Z</time>
      </trkpt>
      <trkpt lat="43.91027" lon="5.19717">
        <ele>381.9999697</ele>
        <time>2019-01-24T12:11:44.000Z</time>
      </trkpt>
      <trkpt lat="43.91005" lon="5.19723">
        <ele>381.9999697</ele>
        <time>2019-01-24T12:12:00.000Z</time>
      </trkpt>
      <trkpt lat="43.90983" lon="5.19729">
        <ele>383.9999697</ele>
        <time>2019-01-24T12:12:14.000Z</time>
      </trkpt>
      <trkpt lat="43.9096" lon="5.19732">
        <ele>381.9999697</ele>
        <time>2019-01-24T12:12:31.000Z</time>
      </trkpt>
      <trkpt lat="43.90938" lon="5.19741">
        <ele>381.9999697</ele>
        <time>2019-01-24T12:12:48.000Z</time>
      </trkpt>
      <trkpt lat="43.90915" lon="5.19752">
        <ele>376.9999697</ele>
        <time>2019-01-24T12:13:04.000Z</time>
      </trkpt>
      <trkpt lat="43.90894" lon="5.19764">
        <ele>378.9999697</ele>
        <time>2019-01-24T12:13:21.000Z</time>
      </trkpt>
      <trkpt lat="43.90872" lon="5.19773">
        <ele>374.9999697</ele>
        <time>2019-01-24T12:13:39.000Z</time>
      </trkpt>
      <trkpt lat="43.90848" lon="5.19772">
        <ele>372.9999697</ele>
        <time>2019-01-24T12:13:54.000Z</time>
      </trkpt>
      <trkpt lat="43.90825" lon="5.19775">
        <ele>374.9999697</ele>
        <time>2019-01-24T12:14:09.000Z</time>
      </trkpt>
      <trkpt lat="43.90762" lon="5.19736">
        <ele>356.9999696</ele>
        <time>2019-01-24T12:14:57.000Z</time>
      </trkpt>
      <trkpt lat="43.9074" lon="5.19724">
        <ele>366.9999697</ele>
        <time>2019-01-24T12:15:17.000Z</time>
      </trkpt>
      <trkpt lat="43.90718" lon="5.19716">
        <ele>366.9999697</ele>
        <time>2019-01-24T12:15:33.000Z</time>
      </trkpt>
      <trkpt lat="43.90694" lon="5.19715">
        <ele>368.9999697</ele>
        <time>2019-01-24T12:15:51.000Z</time>
      </trkpt>
      <trkpt lat="43.90674" lon="5.19702">
        <ele>364.9999697</ele>
        <time>2019-01-24T12:16:14.000Z</time>
      </trkpt>
      <trkpt lat="43.90658" lon="5.19678">
        <ele>361.9999697</ele>
        <time>2019-01-24T12:16:31.000Z</time>
      </trkpt>
      <trkpt lat="43.90649" lon="5.19673">
        <ele>313.9999696</ele>
        <time>2019-01-24T12:16:47.000Z</time>
      </trkpt>
      <trkpt lat="43.90655" lon="5.19646">
        <ele>312.9999696</ele>
        <time>2019-08-24T17:05:29.000Z</time>
      </trkpt>
      <trkpt lat="43.90672" lon="5.19634">
        <ele>313.9999696</ele>
        <time>2019-01-24T12:17:03.000Z</time>
      </trkpt>
      <trkpt lat="43.90691" lon="5.19636">
        <ele>314.9999696</ele>
        <time>2019-01-24T12:17:21.000Z</time>
      </trkpt>
      <trkpt lat="43.90705" lon="5.1963">
        <ele>314.9999696</ele>
        <time>2019-01-24T12:17:37.000Z</time>
      </trkpt>
      <trkpt lat="43.90701" lon="5.19607">
        <ele>313.9999696</ele>
        <time>2019-01-24T12:17:56.000Z</time>
      </trkpt>
      <trkpt lat="43.90693" lon="5.19581">
        <ele>311.9999696</ele>
        <time>2019-01-24T12:18:12.000Z</time>
      </trkpt>
      <trkpt lat="43.90687" lon="5.19548">
        <ele>309.9999696</ele>
        <time>2019-01-24T12:18:28.000Z</time>
      </trkpt>
      <trkpt lat="43.90706" lon="5.1951">
        <ele>307.9999696</ele>
        <time>2019-01-24T12:18:44.000Z</time>
      </trkpt>
      <trkpt lat="43.90724" lon="5.19455">
        <ele>305.9999696</ele>
        <time>2019-01-24T12:19:02.000Z</time>
      </trkpt>
      <trkpt lat="43.9074" lon="5.19414">
        <ele>304.9999696</ele>
        <time>2019-01-24T12:19:19.000Z</time>
      </trkpt>
      <trkpt lat="43.90749" lon="5.19389">
        <ele>304.9999696</ele>
        <time>2019-01-24T12:19:35.000Z</time>
      </trkpt>
      <trkpt lat="43.9074" lon="5.19371">
        <ele>303.9999696</ele>
        <time>2019-01-24T12:19:51.000Z</time>
      </trkpt>
      <trkpt lat="43.90735" lon="5.19334">
        <ele>303.9999696</ele>
        <time>2019-01-24T12:20:08.000Z</time>
      </trkpt>
      <trkpt lat="43.90742" lon="5.1929">
        <ele>303.9999696</ele>
        <time>2019-01-24T12:20:23.000Z</time>
      </trkpt>
      <trkpt lat="43.90745" lon="5.19266">
        <ele>302.9999696</ele>
        <time>2019-01-24T12:20:38.000Z</time>
      </trkpt>
      <trkpt lat="43.90739" lon="5.19233">
        <ele>301.9999696</ele>
        <time>2019-01-24T12:20:55.000Z</time>
      </trkpt>
      <trkpt lat="43.90742" lon="5.19193">
        <ele>299.9999696</ele>
        <time>2019-01-24T12:21:11.000Z</time>
      </trkpt>
      <trkpt lat="43.90745" lon="5.19139">
        <ele>299.9999696</ele>
        <time>2019-01-24T12:21:28.000Z</time>
      </trkpt>
      <trkpt lat="43.9074" lon="5.19109">
        <ele>297.9999696</ele>
        <time>2019-01-24T12:21:43.000Z</time>
      </trkpt>
      <trkpt lat="43.90742" lon="5.19073">
        <ele>297.9999696</ele>
        <time>2019-01-24T12:22:00.000Z</time>
      </trkpt>
      <trkpt lat="43.90744" lon="5.1905">
        <ele>296.9999696</ele>
        <time>2019-01-24T12:22:16.000Z</time>
      </trkpt>
      <trkpt lat="43.90732" lon="5.19017">
        <ele>293.9999696</ele>
        <time>2019-01-24T12:22:32.000Z</time>
      </trkpt>
      <trkpt lat="43.90716" lon="5.18998">
        <ele>292.9999696</ele>
        <time>2019-01-24T12:22:49.000Z</time>
      </trkpt>
      <trkpt lat="43.90715" lon="5.18969">
        <ele>291.9999696</ele>
        <time>2019-01-24T12:23:07.000Z</time>
      </trkpt>
      <trkpt lat="43.9071" lon="5.18952">
        <ele>290.9999696</ele>
        <time>2019-01-24T12:23:40.000Z</time>
      </trkpt>
      <trkpt lat="43.90704" lon="5.18932">
        <ele>289.9999696</ele>
        <time>2019-01-24T12:23:56.000Z</time>
      </trkpt>
      <trkpt lat="43.90695" lon="5.18903">
        <ele>288.9999696</ele>
        <time>2019-01-24T12:24:12.000Z</time>
      </trkpt>
      <trkpt lat="43.90688" lon="5.18885">
        <ele>286.9999696</ele>
        <time>2019-01-24T12:24:30.000Z</time>
      </trkpt>
      <trkpt lat="43.9068" lon="5.18868">
        <ele>284.9999696</ele>
        <time>2019-01-24T12:24:45.000Z</time>
      </trkpt>
      <trkpt lat="43.9067" lon="5.18848">
        <ele>282.9999696</ele>
        <time>2019-01-24T12:25:01.000Z</time>
      </trkpt>
      <trkpt lat="43.90659" lon="5.1883">
        <ele>280.9999696</ele>
        <time>2019-01-24T12:25:17.000Z</time>
      </trkpt>
      <trkpt lat="43.90651" lon="5.18816">
        <ele>279.9999696</ele>
        <time>2019-01-24T12:25:33.000Z</time>
      </trkpt>
      <trkpt lat="43.90642" lon="5.18806">
        <ele>278.9999696</ele>
        <time>2019-01-24T12:25:50.000Z</time>
      </trkpt>
      <trkpt lat="43.90629" lon="5.18797">
        <ele>277.9999696</ele>
        <time>2019-01-24T12:26:06.000Z</time>
      </trkpt>
      <trkpt lat="43.90616" lon="5.18791">
        <ele>275.9999696</ele>
        <time>2019-01-24T12:26:22.000Z</time>
      </trkpt>
      <trkpt lat="43.90603" lon="5.18781">
        <ele>273.9999696</ele>
        <time>2019-01-24T12:26:39.000Z</time>
      </trkpt>
      <trkpt lat="43.90595" lon="5.1877">
        <ele>271.9999696</ele>
        <time>2019-01-24T12:26:55.000Z</time>
      </trkpt>
      <trkpt lat="43.9059" lon="5.18752">
        <ele>268.9999696</ele>
        <time>2019-01-24T12:27:12.000Z</time>
      </trkpt>
      <trkpt lat="43.90614" lon="5.18746">
        <ele>312.9999696</ele>
        <time>2019-01-24T12:28:31.000Z</time>
      </trkpt>
      <trkpt lat="43.90609" lon="5.18715">
        <ele>310.9999696</ele>
        <time>2019-01-24T12:28:50.000Z</time>
      </trkpt>
      <trkpt lat="43.90592" lon="5.18695">
        <ele>309.9999696</ele>
        <time>2019-01-24T12:29:06.000Z</time>
      </trkpt>
      <trkpt lat="43.90575" lon="5.18674">
        <ele>306.9999696</ele>
        <time>2019-01-24T12:29:22.000Z</time>
      </trkpt>
      <trkpt lat="43.90556" lon="5.18654">
        <ele>306.9999696</ele>
        <time>2019-01-24T12:29:37.000Z</time>
      </trkpt>
      <trkpt lat="43.90541" lon="5.18631">
        <ele>305.9999696</ele>
        <time>2019-01-24T12:29:53.000Z</time>
      </trkpt>
      <trkpt lat="43.90535" lon="5.18598">
        <ele>306.9999696</ele>
        <time>2019-01-24T12:30:10.000Z</time>
      </trkpt>
      <trkpt lat="43.90525" lon="5.1857">
        <ele>306.9999696</ele>
        <time>2019-01-24T12:30:26.000Z</time>
      </trkpt>
      <trkpt lat="43.90512" lon="5.18543">
        <ele>305.9999696</ele>
        <time>2019-01-24T12:30:42.000Z</time>
      </trkpt>
      <trkpt lat="43.90502" lon="5.18514">
        <ele>308.9999696</ele>
        <time>2019-01-24T12:30:57.000Z</time>
      </trkpt>
      <trkpt lat="43.90509" lon="5.18483">
        <ele>310.9999696</ele>
        <time>2019-01-24T12:31:14.000Z</time>
      </trkpt>
      <trkpt lat="43.90521" lon="5.18456">
        <ele>308.9999696</ele>
        <time>2019-01-24T12:31:31.000Z</time>
      </trkpt>
      <trkpt lat="43.90533" lon="5.18429">
        <ele>315.9999696</ele>
        <time>2019-01-24T12:31:47.000Z</time>
      </trkpt>
      <trkpt lat="43.90552" lon="5.18411">
        <ele>314.9999696</ele>
        <time>2019-01-24T12:32:05.000Z</time>
      </trkpt>
      <trkpt lat="43.90573" lon="5.18394">
        <ele>316.9999696</ele>
        <time>2019-01-24T12:32:22.000Z</time>
      </trkpt>
      <trkpt lat="43.90594" lon="5.18381">
        <ele>316.9999696</ele>
        <time>2019-01-24T12:32:40.000Z</time>
      </trkpt>
      <trkpt lat="43.90613" lon="5.18363">
        <ele>318.9999696</ele>
        <time>2019-01-24T12:32:59.000Z</time>
      </trkpt>
      <trkpt lat="43.90613" lon="5.18331">
        <ele>317.9999696</ele>
        <time>2019-01-24T12:33:15.000Z</time>
      </trkpt>
      <trkpt lat="43.90616" lon="5.18299">
        <ele>318.9999696</ele>
        <time>2019-01-24T12:33:31.000Z</time>
      </trkpt>
      <trkpt lat="43.90623" lon="5.18269">
        <ele>317.9999696</ele>
        <time>2019-01-24T12:33:48.000Z</time>
      </trkpt>
      <trkpt lat="43.90635" lon="5.18241">
        <ele>315.9999696</ele>
        <time>2019-01-24T12:34:06.000Z</time>
      </trkpt>
      <trkpt lat="43.90648" lon="5.18216">
        <ele>317.9999696</ele>
        <time>2019-01-24T12:34:20.000Z</time>
      </trkpt>
      <trkpt lat="43.90667" lon="5.18198">
        <ele>316.9999696</ele>
        <time>2019-01-24T12:34:36.000Z</time>
      </trkpt>
      <trkpt lat="43.9069" lon="5.18182">
        <ele>319.9999696</ele>
        <time>2019-01-24T12:34:52.000Z</time>
      </trkpt>
      <trkpt lat="43.90689" lon="5.1815">
        <ele>319.9999696</ele>
        <time>2019-01-24T12:35:10.000Z</time>
      </trkpt>
      <trkpt lat="43.90668" lon="5.1814">
        <ele>323.9999696</ele>
        <time>2019-01-24T12:35:51.000Z</time>
      </trkpt>
      <trkpt lat="43.90645" lon="5.18145">
        <ele>321.9999696</ele>
        <time>2019-01-24T12:36:09.000Z</time>
      </trkpt>
      <trkpt lat="43.90625" lon="5.1816">
        <ele>318.9999696</ele>
        <time>2019-01-24T12:36:27.000Z</time>
      </trkpt>
      <trkpt lat="43.90602" lon="5.18172">
        <ele>313.9999696</ele>
        <time>2019-01-24T12:36:46.000Z</time>
      </trkpt>
      <trkpt lat="43.90582" lon="5.18187">
        <ele>312.9999696</ele>
        <time>2019-01-24T12:37:00.000Z</time>
      </trkpt>
      <trkpt lat="43.9056" lon="5.18194">
        <ele>314.9999696</ele>
        <time>2019-01-24T12:37:18.000Z</time>
      </trkpt>
      <trkpt lat="43.90536" lon="5.18203">
        <ele>311.9999696</ele>
        <time>2019-01-24T12:37:34.000Z</time>
      </trkpt>
      <trkpt lat="43.90515" lon="5.18214">
        <ele>311.9999696</ele>
        <time>2019-01-24T12:37:49.000Z</time>
      </trkpt>
      <trkpt lat="43.90492" lon="5.1822">
        <ele>307.9999696</ele>
        <time>2019-01-24T12:38:05.000Z</time>
      </trkpt>
      <trkpt lat="43.90469" lon="5.18227">
        <ele>308.9999696</ele>
        <time>2019-01-24T12:38:22.000Z</time>
      </trkpt>
      <trkpt lat="43.90446" lon="5.18231">
        <ele>308.9999696</ele>
        <time>2019-01-24T12:38:38.000Z</time>
      </trkpt>
      <trkpt lat="43.90424" lon="5.18222">
        <ele>306.9999696</ele>
        <time>2019-01-24T12:38:55.000Z</time>
      </trkpt>
      <trkpt lat="43.90401" lon="5.18221">
        <ele>303.9999696</ele>
        <time>2019-01-24T12:39:13.000Z</time>
      </trkpt>
      <trkpt lat="43.90378" lon="5.18217">
        <ele>288.9999696</ele>
        <time>2019-01-24T12:39:37.000Z</time>
      </trkpt>
      <trkpt lat="43.90355" lon="5.1822">
        <ele>283.9999696</ele>
        <time>2019-01-24T12:39:54.000Z</time>
      </trkpt>
      <trkpt lat="43.90332" lon="5.18223">
        <ele>281.9999696</ele>
        <time>2019-01-24T12:40:13.000Z</time>
      </trkpt>
      <trkpt lat="43.90309" lon="5.18228">
        <ele>282.9999696</ele>
        <time>2019-01-24T12:40:30.000Z</time>
      </trkpt>
      <trkpt lat="43.90286" lon="5.18232">
        <ele>276.9999696</ele>
        <time>2019-01-24T12:40:54.000Z</time>
      </trkpt>
      <trkpt lat="43.90264" lon="5.18232">
        <ele>270.9999696</ele>
        <time>2019-01-24T12:41:28.000Z</time>
      </trkpt>
      <trkpt lat="43.90242" lon="5.18243">
        <ele>262.9999696</ele>
        <time>2019-01-24T12:41:57.000Z</time>
      </trkpt>
      <trkpt lat="43.9022" lon="5.18246">
        <ele>256.9999696</ele>
        <time>2019-01-24T12:42:25.000Z</time>
      </trkpt>
      <trkpt lat="43.90231" lon="5.18218">
        <ele>264.9999696</ele>
        <time>2019-01-24T12:43:19.000Z</time>
      </trkpt>
      <trkpt lat="43.90248" lon="5.18195">
        <ele>258.9999696</ele>
        <time>2019-01-24T12:43:38.000Z</time>
      </trkpt>
      <trkpt lat="43.90263" lon="5.1817">
        <ele>255.9999696</ele>
        <time>2019-01-24T12:43:59.000Z</time>
      </trkpt>
      <trkpt lat="43.90276" lon="5.18144">
        <ele>253.9999696</ele>
        <time>2019-01-24T12:44:22.000Z</time>
      </trkpt>
      <trkpt lat="43.90282" lon="5.18113">
        <ele>254.9999696</ele>
        <time>2019-01-24T12:44:37.000Z</time>
      </trkpt>
      <trkpt lat="43.90293" lon="5.18084">
        <ele>255.9999696</ele>
        <time>2019-01-24T12:44:56.000Z</time>
      </trkpt>
      <trkpt lat="43.90307" lon="5.18058">
        <ele>253.9999696</ele>
        <time>2019-01-24T12:45:15.000Z</time>
      </trkpt>
      <trkpt lat="43.90327" lon="5.18041">
        <ele>256.9999696</ele>
        <time>2019-01-24T12:45:34.000Z</time>
      </trkpt>
      <trkpt lat="43.90348" lon="5.18028">
        <ele>263.9999696</ele>
        <time>2019-01-24T12:45:50.000Z</time>
      </trkpt>
      <trkpt lat="43.90366" lon="5.18007">
        <ele>267.9999696</ele>
        <time>2019-01-24T12:46:12.000Z</time>
      </trkpt>
      <trkpt lat="43.90389" lon="5.17997">
        <ele>267.9999696</ele>
        <time>2019-01-24T12:46:31.000Z</time>
      </trkpt>
      <trkpt lat="43.90409" lon="5.17985">
        <ele>266.9999696</ele>
        <time>2019-01-24T12:46:52.000Z</time>
      </trkpt>
      <trkpt lat="43.90398" lon="5.17957">
        <ele>265.9999696</ele>
        <time>2019-01-24T12:47:21.000Z</time>
      </trkpt>
      <trkpt lat="43.90386" lon="5.1793">
        <ele>264.9999696</ele>
        <time>2019-01-24T12:47:44.000Z</time>
      </trkpt>
      <trkpt lat="43.90374" lon="5.17902">
        <ele>267.9999696</ele>
        <time>2019-01-24T12:48:10.000Z</time>
      </trkpt>
      <trkpt lat="43.90382" lon="5.17872">
        <ele>267.9999696</ele>
        <time>2019-01-24T12:48:38.000Z</time>
      </trkpt>
      <trkpt lat="43.90395" lon="5.17845">
        <ele>269.9999696</ele>
        <time>2019-01-24T12:49:02.000Z</time>
      </trkpt>
      <trkpt lat="43.90406" lon="5.17816">
        <ele>266.9999696</ele>
        <time>2019-01-24T12:49:45.000Z</time>
      </trkpt>
      <trkpt lat="43.90421" lon="5.17791">
        <ele>272.9999696</ele>
        <time>2019-01-24T12:50:29.000Z</time>
      </trkpt>
      <trkpt lat="43.90443" lon="5.17779">
        <ele>272.9999696</ele>
        <time>2019-01-24T12:51:16.000Z</time>
      </trkpt>
      <trkpt lat="43.90461" lon="5.1776">
        <ele>269.9999696</ele>
        <time>2019-01-24T12:51:39.000Z</time>
      </trkpt>
      <trkpt lat="43.90481" lon="5.17747">
        <ele>265.9999696</ele>
        <time>2019-01-24T12:52:01.000Z</time>
      </trkpt>
      <trkpt lat="43.90499" lon="5.17726">
        <ele>262.9999696</ele>
        <time>2019-01-24T12:52:25.000Z</time>
      </trkpt>
      <trkpt lat="43.90516" lon="5.17704">
        <ele>267.9999696</ele>
        <time>2019-01-24T12:52:47.000Z</time>
      </trkpt>
      <trkpt lat="43.90533" lon="5.17682">
        <ele>275.9999696</ele>
        <time>2019-01-24T12:53:10.000Z</time>
      </trkpt>
      <trkpt lat="43.90553" lon="5.17667">
        <ele>274.9999696</ele>
        <time>2019-01-24T12:53:36.000Z</time>
      </trkpt>
      <trkpt lat="43.90567" lon="5.17643">
        <ele>275.9999696</ele>
        <time>2019-01-24T12:54:04.000Z</time>
      </trkpt>
      <trkpt lat="43.90587" lon="5.17626">
        <ele>277.9999696</ele>
        <time>2019-01-24T12:54:37.000Z</time>
      </trkpt>
      <trkpt lat="43.90619" lon="5.17622">
        <ele>314.9999696</ele>
        <time>2019-01-24T12:55:13.000Z</time>
      </trkpt>
      <trkpt lat="43.90633" lon="5.17596">
        <ele>289.9999696</ele>
        <time>2019-01-24T12:55:43.000Z</time>
      </trkpt>
      <trkpt lat="43.90655" lon="5.17583">
        <ele>286.9999696</ele>
        <time>2019-01-24T12:56:04.000Z</time>
      </trkpt>
      <trkpt lat="43.90677" lon="5.17572">
        <ele>287.9999696</ele>
        <time>2019-01-24T12:56:20.000Z</time>
      </trkpt>
      <trkpt lat="43.90694" lon="5.17551">
        <ele>286.9999696</ele>
        <time>2019-01-24T12:56:43.000Z</time>
      </trkpt>
      <trkpt lat="43.90717" lon="5.17548">
        <ele>284.9999696</ele>
        <time>2019-01-24T12:57:04.000Z</time>
      </trkpt>
      <trkpt lat="43.9074" lon="5.17547">
        <ele>280.9999696</ele>
        <time>2019-01-24T12:57:23.000Z</time>
      </trkpt>
      <trkpt lat="43.90762" lon="5.17552">
        <ele>283.9999696</ele>
        <time>2019-01-24T12:57:37.000Z</time>
      </trkpt>
      <trkpt lat="43.90784" lon="5.17564">
        <ele>276.9999696</ele>
        <time>2019-01-24T12:57:59.000Z</time>
      </trkpt>
      <trkpt lat="43.90799" lon="5.1759">
        <ele>276.9999696</ele>
        <time>2019-01-24T12:58:13.000Z</time>
      </trkpt>
      <trkpt lat="43.90814" lon="5.17612">
        <ele>275.9999696</ele>
        <time>2019-01-24T12:58:33.000Z</time>
      </trkpt>
      <trkpt lat="43.90837" lon="5.17629">
        <ele>277.9999696</ele>
        <time>2019-01-24T12:58:54.000Z</time>
      </trkpt>
      <trkpt lat="43.90862" lon="5.17631">
        <ele>284.9999696</ele>
        <time>2019-01-24T12:59:06.000Z</time>
      </trkpt>
      <trkpt lat="43.90885" lon="5.17627">
        <ele>285.9999696</ele>
        <time>2019-01-24T12:59:24.000Z</time>
      </trkpt>
      <trkpt lat="43.90904" lon="5.17644">
        <ele>277.9999696</ele>
        <time>2019-01-24T12:59:49.000Z</time>
      </trkpt>
      <trkpt lat="43.90926" lon="5.17648">
        <ele>280.9999696</ele>
        <time>2019-01-24T13:00:02.000Z</time>
      </trkpt>
      <trkpt lat="43.9095" lon="5.17647">
        <ele>290.9999696</ele>
        <time>2019-01-24T13:03:28.000Z</time>
      </trkpt>
      <trkpt lat="43.90972" lon="5.17636">
        <ele>285.9999696</ele>
        <time>2019-01-24T13:03:48.000Z</time>
      </trkpt>
      <trkpt lat="43.90996" lon="5.17635">
        <ele>284.9999696</ele>
        <time>2019-01-24T13:04:10.000Z</time>
      </trkpt>
      <trkpt lat="43.91019" lon="5.17629">
        <ele>277.9999696</ele>
        <time>2019-01-24T13:04:30.000Z</time>
      </trkpt>
      <trkpt lat="43.91038" lon="5.17611">
        <ele>279.9999696</ele>
        <time>2019-01-24T13:04:49.000Z</time>
      </trkpt>
      <trkpt lat="43.9106" lon="5.17606">
        <ele>282.9999696</ele>
        <time>2019-01-24T13:05:08.000Z</time>
      </trkpt>
      <trkpt lat="43.91083" lon="5.17601">
        <ele>293.9999696</ele>
        <time>2019-01-24T13:05:21.000Z</time>
      </trkpt>
      <trkpt lat="43.91105" lon="5.17592">
        <ele>294.9999696</ele>
        <time>2019-01-24T13:05:56.000Z</time>
      </trkpt>
      <trkpt lat="43.91127" lon="5.17592">
        <ele>295.9999696</ele>
        <time>2019-01-24T13:06:18.000Z</time>
      </trkpt>
      <trkpt lat="43.9115" lon="5.17582">
        <ele>295.9999696</ele>
        <time>2019-01-24T13:06:38.000Z</time>
      </trkpt>
      <trkpt lat="43.91172" lon="5.17576">
        <ele>288.9999696</ele>
        <time>2019-01-24T13:07:04.000Z</time>
      </trkpt>
      <trkpt lat="43.91196" lon="5.17576">
        <ele>289.9999696</ele>
        <time>2019-01-24T13:07:22.000Z</time>
      </trkpt>
      <trkpt lat="43.91221" lon="5.17581">
        <ele>293.9999696</ele>
        <time>2019-01-24T13:07:39.000Z</time>
      </trkpt>
      <trkpt lat="43.91244" lon="5.17584">
        <ele>298.9999696</ele>
        <time>2019-01-24T13:07:57.000Z</time>
      </trkpt>
      <trkpt lat="43.91264" lon="5.17569">
        <ele>300.9999696</ele>
        <time>2019-01-24T13:08:20.000Z</time>
      </trkpt>
      <trkpt lat="43.91285" lon="5.17584">
        <ele>295.9999696</ele>
        <time>2019-01-24T13:08:43.000Z</time>
      </trkpt>
      <trkpt lat="43.91308" lon="5.17594">
        <ele>296.9999696</ele>
        <time>2019-01-24T13:09:03.000Z</time>
      </trkpt>
      <trkpt lat="43.91329" lon="5.1761">
        <ele>298.9999696</ele>
        <time>2019-01-24T13:09:39.000Z</time>
      </trkpt>
      <trkpt lat="43.91351" lon="5.17612">
        <ele>304.9999696</ele>
        <time>2019-01-24T13:09:53.000Z</time>
      </trkpt>
      <trkpt lat="43.91374" lon="5.17612">
        <ele>306.9999696</ele>
        <time>2019-01-24T13:10:11.000Z</time>
      </trkpt>
      <trkpt lat="43.91397" lon="5.17618">
        <ele>308.9999696</ele>
        <time>2019-01-24T13:10:42.000Z</time>
      </trkpt>
      <trkpt lat="43.9142" lon="5.17623">
        <ele>313.9999696</ele>
        <time>2019-01-24T13:11:03.000Z</time>
      </trkpt>
      <trkpt lat="43.91396" lon="5.17619">
        <ele>305.9999696</ele>
        <time>2019-01-24T13:11:39.000Z</time>
      </trkpt>
      <trkpt lat="43.91373" lon="5.17617">
        <ele>307.9999696</ele>
        <time>2019-01-24T13:11:56.000Z</time>
      </trkpt>
      <trkpt lat="43.91351" lon="5.17611">
        <ele>304.9999696</ele>
        <time>2019-01-24T13:12:29.000Z</time>
      </trkpt>
      <trkpt lat="43.91364" lon="5.17637">
        <ele>310.9999696</ele>
        <time>2019-01-24T13:13:25.000Z</time>
      </trkpt>
      <trkpt lat="43.91383" lon="5.17657">
        <ele>304.9999696</ele>
        <time>2019-01-24T13:13:45.000Z</time>
      </trkpt>
      <trkpt lat="43.91407" lon="5.17665">
        <ele>308.9999696</ele>
        <time>2019-01-24T13:13:57.000Z</time>
      </trkpt>
      <trkpt lat="43.91428" lon="5.17676">
        <ele>305.9999696</ele>
        <time>2019-01-24T13:14:24.000Z</time>
      </trkpt>
      <trkpt lat="43.91453" lon="5.17692">
        <ele>311.9999696</ele>
        <time>2019-01-24T13:14:43.000Z</time>
      </trkpt>
      <trkpt lat="43.91493" lon="5.17715">
        <ele>283.9999696</ele>
        <time>2019-01-24T13:15:14.000Z</time>
      </trkpt>
      <trkpt lat="43.91503" lon="5.17744">
        <ele>311.9999696</ele>
        <time>2019-01-24T13:15:40.000Z</time>
      </trkpt>
      <trkpt lat="43.91521" lon="5.1777">
        <ele>310.9999696</ele>
        <time>2019-01-24T13:16:00.000Z</time>
      </trkpt>
      <trkpt lat="43.91542" lon="5.17784">
        <ele>318.9999696</ele>
        <time>2019-01-24T13:16:15.000Z</time>
      </trkpt>
      <trkpt lat="43.91559" lon="5.17804">
        <ele>318.9999696</ele>
        <time>2019-01-24T13:16:33.000Z</time>
      </trkpt>
      <trkpt lat="43.9158" lon="5.17818">
        <ele>319.9999696</ele>
        <time>2019-01-24T13:16:48.000Z</time>
      </trkpt>
      <trkpt lat="43.91594" lon="5.17843">
        <ele>320.9999696</ele>
        <time>2019-01-24T13:17:12.000Z</time>
      </trkpt>
      <trkpt lat="43.91603" lon="5.17874">
        <ele>318.9999696</ele>
        <time>2019-01-24T13:17:31.000Z</time>
      </trkpt>
      <trkpt lat="43.91609" lon="5.17905">
        <ele>318.9999696</ele>
        <time>2019-01-24T13:17:56.000Z</time>
      </trkpt>
      <trkpt lat="43.91619" lon="5.17934">
        <ele>319.9999696</ele>
        <time>2019-01-24T13:18:16.000Z</time>
      </trkpt>
      <trkpt lat="43.91629" lon="5.17962">
        <ele>311.9999696</ele>
        <time>2019-01-24T13:18:42.000Z</time>
      </trkpt>
      <trkpt lat="43.91637" lon="5.17993">
        <ele>326.9999696</ele>
        <time>2019-01-24T13:19:11.000Z</time>
      </trkpt>
      <trkpt lat="43.91651" lon="5.18018">
        <ele>326.9999696</ele>
        <time>2019-01-24T13:19:30.000Z</time>
      </trkpt>
      <trkpt lat="43.91666" lon="5.18041">
        <ele>328.9999696</ele>
        <time>2019-01-24T13:19:56.000Z</time>
      </trkpt>
      <trkpt lat="43.9168" lon="5.18066">
        <ele>325.9999696</ele>
        <time>2019-01-24T13:21:04.000Z</time>
      </trkpt>
      <trkpt lat="43.91691" lon="5.18094">
        <ele>328.9999696</ele>
        <time>2019-01-24T13:21:28.000Z</time>
      </trkpt>
      <trkpt lat="43.91707" lon="5.18118">
        <ele>328.9999696</ele>
        <time>2019-01-24T13:21:52.000Z</time>
      </trkpt>
      <trkpt lat="43.91718" lon="5.18146">
        <ele>333.9999696</ele>
        <time>2019-01-24T13:22:15.000Z</time>
      </trkpt>
      <trkpt lat="43.91729" lon="5.18175">
        <ele>333.9999696</ele>
        <time>2019-01-24T13:22:45.000Z</time>
      </trkpt>
      <trkpt lat="43.91743" lon="5.182">
        <ele>334.9999696</ele>
        <time>2019-01-24T13:23:07.000Z</time>
      </trkpt>
      <trkpt lat="43.91766" lon="5.18205">
        <ele>338.9999696</ele>
        <time>2019-01-24T13:23:40.000Z</time>
      </trkpt>
      <trkpt lat="43.91789" lon="5.18199">
        <ele>338.9999696</ele>
        <time>2019-01-24T13:23:58.000Z</time>
      </trkpt>
      <trkpt lat="43.91811" lon="5.182">
        <ele>340.9999696</ele>
        <time>2019-01-24T13:24:19.000Z</time>
      </trkpt>
      <trkpt lat="43.91832" lon="5.18186">
        <ele>345.9999696</ele>
        <time>2019-01-24T13:24:37.000Z</time>
      </trkpt>
      <trkpt lat="43.91854" lon="5.18174">
        <ele>346.9999696</ele>
        <time>2019-01-24T13:25:05.000Z</time>
      </trkpt>
      <trkpt lat="43.91877" lon="5.18169">
        <ele>354.9999696</ele>
        <time>2019-01-24T13:25:30.000Z</time>
      </trkpt>
      <trkpt lat="43.919" lon="5.1817">
        <ele>357.9999696</ele>
        <time>2019-01-24T13:25:54.000Z</time>
      </trkpt>
      <trkpt lat="43.91922" lon="5.18157">
        <ele>346.9999696</ele>
        <time>2019-01-24T13:26:30.000Z</time>
      </trkpt>
      <trkpt lat="43.91945" lon="5.18154">
        <ele>350.9999696</ele>
        <time>2019-01-24T13:26:43.000Z</time>
      </trkpt>
      <trkpt lat="43.91968" lon="5.18146">
        <ele>353.9999696</ele>
        <time>2019-01-24T13:27:09.000Z</time>
      </trkpt>
      <trkpt lat="43.9199" lon="5.18149">
        <ele>355.9999696</ele>
        <time>2019-01-24T13:27:48.000Z</time>
      </trkpt>
      <trkpt lat="43.92012" lon="5.18157">
        <ele>358.9999696</ele>
        <time>2019-01-24T13:28:11.000Z</time>
      </trkpt>
      <trkpt lat="43.92029" lon="5.18178">
        <ele>359.9999697</ele>
        <time>2019-01-24T13:28:31.000Z</time>
      </trkpt>
      <trkpt lat="43.92041" lon="5.18208">
        <ele>358.9999696</ele>
        <time>2019-01-24T13:28:53.000Z</time>
      </trkpt>
      <trkpt lat="43.92054" lon="5.18234">
        <ele>357.9999696</ele>
        <time>2019-01-24T13:29:20.000Z</time>
      </trkpt>
      <trkpt lat="43.92066" lon="5.18263">
        <ele>357.9999696</ele>
        <time>2019-01-24T13:29:46.000Z</time>
      </trkpt>
      <trkpt lat="43.92078" lon="5.18291">
        <ele>357.9999696</ele>
        <time>2019-01-24T13:30:07.000Z</time>
      </trkpt>
      <trkpt lat="43.92091" lon="5.18316">
        <ele>363.9999697</ele>
        <time>2019-01-24T13:30:34.000Z</time>
      </trkpt>
      <trkpt lat="43.92101" lon="5.18345">
        <ele>358.9999696</ele>
        <time>2019-01-24T13:31:00.000Z</time>
      </trkpt>
      <trkpt lat="43.92099" lon="5.18376">
        <ele>354.9999696</ele>
        <time>2019-01-24T13:31:27.000Z</time>
      </trkpt>
      <trkpt lat="43.92117" lon="5.18398">
        <ele>365.9999697</ele>
        <time>2019-01-24T13:31:56.000Z</time>
      </trkpt>
      <trkpt lat="43.9214" lon="5.18397">
        <ele>368.9999697</ele>
        <time>2019-01-24T13:32:33.000Z</time>
      </trkpt>
      <trkpt lat="43.92162" lon="5.18405">
        <ele>372.9999697</ele>
        <time>2019-01-24T13:32:53.000Z</time>
      </trkpt>
      <trkpt lat="43.92186" lon="5.18409">
        <ele>373.9999697</ele>
        <time>2019-01-24T13:33:18.000Z</time>
      </trkpt>
      <trkpt lat="43.92208" lon="5.18412">
        <ele>375.9999697</ele>
        <time>2019-01-24T13:33:42.000Z</time>
      </trkpt>
      <trkpt lat="43.92231" lon="5.18404">
        <ele>368.9999697</ele>
        <time>2019-01-24T13:34:14.000Z</time>
      </trkpt>
      <trkpt lat="43.92253" lon="5.18398">
        <ele>373.9999697</ele>
        <time>2019-01-24T13:34:43.000Z</time>
      </trkpt>
      <trkpt lat="43.92276" lon="5.18399">
        <ele>375.9999697</ele>
        <time>2019-01-24T13:35:31.000Z</time>
      </trkpt>
      <trkpt lat="43.92298" lon="5.18391">
        <ele>378.9999697</ele>
        <time>2019-01-24T13:36:47.000Z</time>
      </trkpt>
      <trkpt lat="43.92322" lon="5.18391">
        <ele>379.9999697</ele>
        <time>2019-01-24T13:37:16.000Z</time>
      </trkpt>
      <trkpt lat="43.92345" lon="5.1839">
        <ele>379.9999697</ele>
        <time>2019-01-24T13:37:37.000Z</time>
      </trkpt>
      <trkpt lat="43.92368" lon="5.18389">
        <ele>381.9999697</ele>
        <time>2019-01-24T13:37:58.000Z</time>
      </trkpt>
      <trkpt lat="43.92391" lon="5.18391">
        <ele>383.9999697</ele>
        <time>2019-01-24T13:38:31.000Z</time>
      </trkpt>
      <trkpt lat="43.9241" lon="5.18373">
        <ele>391.9999697</ele>
        <time>2019-01-24T13:39:05.000Z</time>
      </trkpt>
      <trkpt lat="43.92432" lon="5.18363">
        <ele>384.9999697</ele>
        <time>2019-01-24T13:39:57.000Z</time>
      </trkpt>
      <trkpt lat="43.92454" lon="5.18361">
        <ele>399.9999697</ele>
        <time>2019-01-24T13:41:05.000Z</time>
      </trkpt>
      <trkpt lat="43.92475" lon="5.18349">
        <ele>392.9999697</ele>
        <time>2019-01-24T13:43:50.000Z</time>
      </trkpt>
      <trkpt lat="43.92499" lon="5.18348">
        <ele>390.9999697</ele>
        <time>2019-01-24T13:46:10.000Z</time>
      </trkpt>
      <trkpt lat="43.92517" lon="5.18367">
        <ele>389.9999697</ele>
        <time>2019-01-24T13:46:49.000Z</time>
      </trkpt>
      <trkpt lat="43.92529" lon="5.18394">
        <ele>392.9999697</ele>
        <time>2019-01-24T13:47:17.000Z</time>
      </trkpt>
      <trkpt lat="43.92553" lon="5.18407">
        <ele>397.9999697</ele>
        <time>2019-01-24T13:47:41.000Z</time>
      </trkpt>
      <trkpt lat="43.92572" lon="5.18427">
        <ele>399.9999697</ele>
        <time>2019-01-24T13:48:25.000Z</time>
      </trkpt>
      <trkpt lat="43.92592" lon="5.18442">
        <ele>393.9999697</ele>
        <time>2019-01-24T13:48:51.000Z</time>
      </trkpt>
      <trkpt lat="43.92615" lon="5.18442">
        <ele>398.9999697</ele>
        <time>2019-01-24T13:49:47.000Z</time>
      </trkpt>
      <trkpt lat="43.92634" lon="5.18459">
        <ele>405.9999697</ele>
        <time>2019-01-24T13:50:18.000Z</time>
      </trkpt>
      <trkpt lat="43.92651" lon="5.18482">
        <ele>404.9999697</ele>
        <time>2019-01-24T13:50:34.000Z</time>
      </trkpt>
      <trkpt lat="43.92664" lon="5.18509">
        <ele>403.9999697</ele>
        <time>2019-01-24T13:50:53.000Z</time>
      </trkpt>
      <trkpt lat="43.92711" lon="5.1858">
        <ele>419.9999697</ele>
        <time>2019-01-24T13:51:42.000Z</time>
      </trkpt>
      <trkpt lat="43.92721" lon="5.1861">
        <ele>412.9999697</ele>
        <time>2019-01-24T13:52:04.000Z</time>
      </trkpt>
      <trkpt lat="43.92718" lon="5.18642">
        <ele>409.9999697</ele>
        <time>2019-01-24T13:52:27.000Z</time>
      </trkpt>
      <trkpt lat="43.92727" lon="5.1867">
        <ele>409.9999697</ele>
        <time>2019-01-24T13:52:50.000Z</time>
      </trkpt>
      <trkpt lat="43.92746" lon="5.1869">
        <ele>408.9999697</ele>
        <time>2019-01-24T13:53:09.000Z</time>
      </trkpt>
      <trkpt lat="43.92765" lon="5.18707">
        <ele>406.9999697</ele>
        <time>2019-01-24T13:53:32.000Z</time>
      </trkpt>
      <trkpt lat="43.92786" lon="5.18725">
        <ele>404.9999697</ele>
        <time>2019-01-24T13:53:52.000Z</time>
      </trkpt>
      <trkpt lat="43.92808" lon="5.18733">
        <ele>408.9999697</ele>
        <time>2019-01-24T13:54:15.000Z</time>
      </trkpt>
      <trkpt lat="43.9283" lon="5.18746">
        <ele>410.9999697</ele>
        <time>2019-01-24T13:54:34.000Z</time>
      </trkpt>
      <trkpt lat="43.92849" lon="5.18765">
        <ele>415.9999697</ele>
        <time>2019-01-24T13:54:51.000Z</time>
      </trkpt>
      <trkpt lat="43.9287" lon="5.18777">
        <ele>417.9999697</ele>
        <time>2019-01-24T13:55:09.000Z</time>
      </trkpt>
      <trkpt lat="43.92892" lon="5.1879">
        <ele>415.9999697</ele>
        <time>2019-01-24T13:55:36.000Z</time>
      </trkpt>
      <trkpt lat="43.92909" lon="5.1881">
        <ele>415.9999697</ele>
        <time>2019-01-24T13:56:00.000Z</time>
      </trkpt>
      <trkpt lat="43.92932" lon="5.1881">
        <ele>410.9999697</ele>
        <time>2019-01-24T13:56:13.000Z</time>
      </trkpt>
      <trkpt lat="43.92955" lon="5.18816">
        <ele>412.9999697</ele>
        <time>2019-01-24T13:56:31.000Z</time>
      </trkpt>
      <trkpt lat="43.92976" lon="5.18829">
        <ele>413.9999697</ele>
        <time>2019-01-24T13:56:47.000Z</time>
      </trkpt>
      <trkpt lat="43.92996" lon="5.18843">
        <ele>417.9999697</ele>
        <time>2019-01-24T13:57:02.000Z</time>
      </trkpt>
      <trkpt lat="43.93014" lon="5.18864">
        <ele>423.9999697</ele>
        <time>2019-01-24T13:57:20.000Z</time>
      </trkpt>
      <trkpt lat="43.93034" lon="5.18878">
        <ele>423.9999697</ele>
        <time>2019-01-24T13:57:38.000Z</time>
      </trkpt>
      <trkpt lat="43.93055" lon="5.18895">
        <ele>422.9999697</ele>
        <time>2019-01-24T13:57:59.000Z</time>
      </trkpt>
      <trkpt lat="43.93078" lon="5.18902">
        <ele>424.9999697</ele>
        <time>2019-01-24T13:58:12.000Z</time>
      </trkpt>
    </trkseg>
  </trk>
</gpx>